createdAt,value
2018-03-19T00:01:50.661Z,98462.27
2018-03-19T00:04:18.732Z,98446.64
2018-03-19T00:06:46.816Z,98445.91
2018-03-19T00:09:14.865Z,98450.81
2018-03-19T00:11:42.464Z,98472.31
2018-03-19T00:14:10.256Z,98469.63
2018-03-19T00:16:38.335Z,98471.42
2018-03-19T00:19:06.187Z,98470.44
2018-03-19T00:21:33.776Z,98468.79
2018-03-19T00:24:01.359Z,98463.56
2018-03-19T00:26:28.894Z,98465.04
2018-03-19T00:28:56.799Z,98465.33
2018-03-19T00:31:24.337Z,98460.73
2018-03-19T00:33:51.916Z,98472.88
2018-03-19T00:36:19.448Z,98472.53
2018-03-19T00:38:47.036Z,98473.62
2018-03-19T00:41:14.624Z,98473.55
2018-03-19T00:43:42.164Z,98472.98
2018-03-19T00:46:10.274Z,98473.62
2018-03-19T00:48:37.862Z,98464.48
2018-03-19T00:51:05.398Z,98472.27
2018-03-19T00:53:33.375Z,98458.16
2018-03-19T00:56:01.720Z,98469.14
2018-03-19T00:58:29.259Z,98459.13
2018-03-19T01:00:57.244Z,98466.09
2018-03-19T01:03:24.836Z,98473.95
2018-03-19T01:05:52.420Z,98455.02
2018-03-19T01:08:20.018Z,98462.02
2018-03-19T01:10:47.602Z,98467.00
2018-03-19T01:13:15.676Z,98478.96
2018-03-19T01:15:43.216Z,98468.76
2018-03-19T01:18:11.179Z,98463.68
2018-03-19T01:20:38.785Z,98468.98
2018-03-19T01:23:06.324Z,98464.62
2018-03-19T01:25:33.863Z,98467.14
2018-03-19T01:28:01.444Z,98461.06
2018-03-19T01:30:29.003Z,98457.78
2018-03-19T01:32:57.112Z,98457.12
2018-03-19T01:35:24.660Z,98470.34
2018-03-19T01:37:52.258Z,98483.70
2018-03-19T01:40:19.808Z,98468.04
2018-03-19T01:42:47.396Z,98467.41
2018-03-19T01:45:14.980Z,98467.03
2018-03-19T01:47:42.968Z,98469.95
2018-03-19T01:50:10.555Z,98464.28
2018-03-19T01:52:49.065Z,98459.55
2018-03-19T01:55:16.604Z,98454.31
2018-03-19T01:57:44.184Z,98451.19
2018-03-19T02:00:11.736Z,98453.41
2018-03-19T02:02:39.564Z,98459.81
2018-03-19T02:05:07.152Z,98448.14
2018-03-19T02:07:34.691Z,98435.44
2018-03-19T02:10:02.294Z,98435.44
2018-03-19T02:12:29.832Z,98446.74
2018-03-19T02:14:57.890Z,98456.55
2018-03-19T02:17:25.431Z,98461.74
2018-03-19T02:19:52.985Z,98450.10
2018-03-19T02:22:20.997Z,98453.73
2018-03-19T02:24:48.550Z,98462.88
2018-03-19T02:27:16.136Z,98476.02
2018-03-19T02:29:43.689Z,98478.30
2018-03-19T02:32:11.290Z,98478.00
2018-03-19T02:34:38.888Z,98478.22
2018-03-19T02:37:07.454Z,98472.20
2018-03-19T02:39:35.448Z,98469.73
2018-03-19T02:42:03.024Z,98473.45
2018-03-19T02:44:30.559Z,98484.57
2018-03-19T02:46:58.152Z,98484.73
2018-03-19T02:49:25.762Z,98491.90
2018-03-19T02:51:53.374Z,98498.63
2018-03-19T02:54:20.931Z,98502.52
2018-03-19T02:56:48.491Z,98500.80
2018-03-19T02:59:16.370Z,98514.41
2018-03-19T03:01:43.956Z,98500.98
2018-03-19T03:04:11.512Z,98503.23
2018-03-19T03:06:39.093Z,98511.97
2018-03-19T03:09:06.646Z,98517.80
2018-03-19T03:11:34.223Z,98514.04
2018-03-19T03:14:01.772Z,98514.45
2018-03-19T03:16:29.351Z,98531.58
2018-03-19T03:18:56.900Z,98531.23
2018-03-19T03:21:24.485Z,98515.89
2018-03-19T03:23:52.023Z,98509.50
2018-03-19T03:26:19.616Z,98520.77
2018-03-19T03:28:47.165Z,98516.44
2018-03-19T03:31:14.755Z,98526.80
2018-03-19T03:33:42.291Z,98532.30
2018-03-19T03:36:09.834Z,98545.97
2018-03-19T03:38:37.388Z,98545.79
2018-03-19T03:41:04.967Z,98549.73
2018-03-19T03:43:32.546Z,98555.21
2018-03-19T03:46:00.138Z,98550.39
2018-03-19T03:48:27.864Z,98566.38
2018-03-19T03:50:55.928Z,98561.90
2018-03-19T03:53:23.465Z,98570.97
2018-03-19T03:55:51.047Z,98571.83
2018-03-19T03:58:18.596Z,98578.30
2018-03-19T04:00:46.172Z,98579.22
2018-03-19T04:03:13.763Z,98584.70
2018-03-19T04:05:41.598Z,98588.95
2018-03-19T04:08:09.198Z,98580.28
2018-03-19T04:10:36.763Z,98592.52
2018-03-19T04:13:04.569Z,98573.95
2018-03-19T04:15:32.184Z,98561.71
2018-03-19T04:17:59.764Z,98555.16
2018-03-19T04:20:27.349Z,98596.69
2018-03-19T04:22:54.945Z,98585.59
2018-03-19T04:25:22.503Z,98582.17
2018-03-19T04:27:50.052Z,98582.47
2018-03-19T04:30:17.636Z,98584.63
2018-03-19T04:32:45.188Z,98592.84
2018-03-19T04:35:12.776Z,98606.09
2018-03-19T04:37:40.931Z,98609.91
2018-03-19T04:40:08.524Z,98611.47
2018-03-19T04:42:36.081Z,98610.62
2018-03-19T04:45:03.660Z,98613.92
2018-03-19T04:47:31.204Z,98615.80
2018-03-19T04:49:58.793Z,98616.05
2018-03-19T04:52:26.342Z,98626.30
2018-03-19T04:54:54.537Z,98635.56
2018-03-19T04:57:22.077Z,98629.67
2018-03-19T04:59:49.652Z,98619.07
2018-03-19T05:02:17.196Z,98628.56
2018-03-19T05:04:44.787Z,98631.35
2018-03-19T05:07:12.554Z,98639.59
2018-03-19T05:09:40.141Z,98637.33
2018-03-19T05:12:07.723Z,98640.72
2018-03-19T05:14:36.077Z,98641.88
2018-03-19T05:17:03.668Z,98645.35
2018-03-19T05:19:31.207Z,98653.53
2018-03-19T05:21:58.791Z,98658.93
2018-03-19T05:24:26.327Z,98654.48
2018-03-19T05:26:53.940Z,98659.25
2018-03-19T05:29:21.488Z,98654.52
2018-03-19T05:31:49.064Z,98648.21
2018-03-19T05:34:16.652Z,98644.09
2018-03-19T05:36:45.052Z,98650.28
2018-03-19T05:39:12.644Z,98645.10
2018-03-19T05:41:40.233Z,98639.01
2018-03-19T05:44:07.788Z,98645.06
2018-03-19T05:46:35.390Z,98640.09
2018-03-19T05:49:03.870Z,98640.92
2018-03-19T05:51:35.421Z,98650.37
2018-03-19T05:54:03.720Z,98652.31
2018-03-19T05:56:31.287Z,98655.16
2018-03-19T05:58:58.894Z,98655.01
2018-03-19T06:01:27.409Z,98661.73
2018-03-19T06:03:56.037Z,98664.59
2018-03-19T06:06:23.640Z,98649.85
2018-03-19T06:08:51.985Z,98648.31
2018-03-19T06:11:19.543Z,98643.91
2018-03-19T06:13:47.491Z,98654.52
2018-03-19T06:16:16.111Z,98672.20
2018-03-19T06:18:44.312Z,98681.64
2018-03-19T06:21:12.638Z,98699.57
2018-03-19T06:23:40.191Z,98701.33
2018-03-19T06:26:08.261Z,98706.21
2018-03-19T06:28:35.892Z,98711.92
2018-03-19T06:31:03.899Z,98703.51
2018-03-19T06:33:32.058Z,98703.74
2018-03-19T06:35:59.646Z,98718.56
2018-03-19T06:38:27.597Z,98717.14
2018-03-19T06:40:55.518Z,98721.66
2018-03-19T06:43:23.142Z,98730.63
2018-03-19T06:45:51.340Z,98742.02
2018-03-19T06:48:19.066Z,98736.52
2018-03-19T06:50:46.983Z,98738.51
2018-03-19T06:53:15.362Z,98740.88
2018-03-19T06:55:43.037Z,98741.11
2018-03-19T06:58:10.639Z,98738.80
2018-03-19T07:00:38.295Z,98745.30
2018-03-19T07:03:06.879Z,98754.73
2018-03-19T07:05:34.706Z,98751.11
2018-03-19T07:08:02.469Z,98758.03
2018-03-19T07:10:30.080Z,98756.22
2018-03-19T07:12:58.315Z,98752.92
2018-03-19T07:15:25.870Z,98761.91
2018-03-19T07:17:53.482Z,98766.02
2018-03-19T07:20:21.063Z,98776.22
2018-03-19T07:22:48.686Z,98787.84
2018-03-19T07:25:16.540Z,98780.25
2018-03-19T07:27:44.946Z,98779.41
2018-03-19T07:30:12.516Z,98769.22
2018-03-19T07:32:40.126Z,98777.88
2018-03-19T07:35:07.906Z,98777.95
2018-03-19T07:37:35.958Z,98771.88
2018-03-19T07:40:03.754Z,98776.96
2018-03-19T07:42:31.465Z,98778.72
2018-03-19T07:44:59.269Z,98776.52
2018-03-19T07:47:28.887Z,98775.08
2018-03-19T07:49:58.586Z,98775.38
2018-03-19T07:52:26.550Z,98766.15
2018-03-19T07:54:54.552Z,98756.09
2018-03-19T07:57:23.684Z,98757.34
2018-03-19T07:59:51.992Z,98753.09
2018-03-19T08:02:19.750Z,98747.80
2018-03-19T08:04:48.124Z,98753.60
2018-03-19T08:07:15.755Z,98758.52
2018-03-19T08:09:43.402Z,98748.30
2018-03-19T08:12:11.254Z,98749.77
2018-03-19T08:14:38.871Z,98751.34
2018-03-19T08:17:07.249Z,98767.22
2018-03-19T08:19:34.845Z,98765.23
2018-03-19T08:22:03.396Z,98770.69
2018-03-19T08:24:31.222Z,98771.63
2018-03-19T08:27:07.555Z,98768.16
2018-03-19T08:29:35.285Z,98764.33
2018-03-19T08:32:02.915Z,98762.44
2018-03-19T08:34:30.626Z,98765.65
2018-03-19T08:36:58.377Z,98775.16
2018-03-19T08:39:26.483Z,98777.50
2018-03-19T08:41:54.583Z,98767.66
2018-03-19T08:44:22.463Z,98759.53
2018-03-19T08:46:50.083Z,98747.27
2018-03-19T08:49:17.663Z,98747.34
2018-03-19T08:51:45.480Z,98746.80
2018-03-19T08:54:13.221Z,98754.16
2018-03-19T08:56:40.829Z,98746.53
2018-03-19T08:59:08.419Z,98755.17
2018-03-19T09:01:36.028Z,98755.55
2018-03-19T09:04:04.643Z,98757.30
2018-03-19T09:06:32.429Z,98753.16
2018-03-19T09:09:00.035Z,98762.97
2018-03-19T09:11:28.895Z,98766.54
2018-03-19T09:13:56.501Z,98773.59
2018-03-19T09:16:24.685Z,98768.76
2018-03-19T09:18:52.468Z,98757.47
2018-03-19T09:21:20.070Z,98748.02
2018-03-19T09:23:47.898Z,98744.63
2018-03-19T09:26:16.012Z,98739.64
2018-03-19T09:28:44.084Z,98748.23
2018-03-19T09:33:35.636Z,98748.34
2018-03-19T09:36:04.017Z,98755.44
2018-03-19T09:38:31.640Z,98746.05
2018-03-19T09:40:59.521Z,98734.28
2018-03-19T09:43:28.189Z,98731.70
2018-03-19T09:45:55.793Z,98746.47
2018-03-19T09:48:24.234Z,98735.22
2018-03-19T09:50:52.006Z,98728.09
2018-03-19T09:53:19.578Z,98729.41
2018-03-19T09:55:47.394Z,98737.02
2018-03-19T09:58:15.003Z,98733.47
2018-03-19T10:00:42.576Z,98728.34
2018-03-19T10:03:10.828Z,98721.56
2018-03-19T10:05:38.432Z,98742.23
2018-03-19T10:08:06.037Z,98746.22
2018-03-19T10:10:33.887Z,98746.06
2018-03-19T10:13:01.446Z,98740.86
2018-03-19T10:15:29.128Z,98723.65
2018-03-19T10:17:56.714Z,98718.94
2018-03-19T10:20:24.846Z,98713.11
2018-03-19T10:22:52.443Z,98724.44
2018-03-19T10:25:20.051Z,98723.66
2018-03-19T10:27:47.722Z,98726.86
2018-03-19T10:30:15.297Z,98732.63
2018-03-19T10:32:43.459Z,98726.71
2018-03-19T10:35:11.208Z,98729.62
2018-03-19T10:37:38.974Z,98707.53
2018-03-19T10:40:06.599Z,98711.67
2018-03-19T10:42:34.713Z,98718.77
2018-03-19T10:45:03.158Z,98710.98
2018-03-19T10:47:31.221Z,98713.61
2018-03-19T10:49:59.028Z,98696.22
2018-03-19T10:52:26.599Z,98699.95
2018-03-19T10:54:54.206Z,98698.53
2018-03-19T10:57:21.783Z,98705.61
2018-03-19T10:59:49.399Z,98714.23
2018-03-19T11:05:24.585Z,98709.86
2018-03-19T11:07:58.133Z,98713.47
2018-03-19T11:10:25.871Z,98713.13
2018-03-19T11:12:53.858Z,98706.83
2018-03-19T11:15:21.604Z,98694.86
2018-03-19T11:17:49.895Z,98690.77
2018-03-19T11:20:17.502Z,98693.88
2018-03-19T11:22:45.135Z,98680.92
2018-03-19T11:25:12.875Z,98673.16
2018-03-19T11:27:40.482Z,98671.11
2018-03-19T11:30:08.126Z,98663.29
2018-03-19T11:32:35.758Z,98664.23
2018-03-19T11:35:03.705Z,98664.03
2018-03-19T11:37:31.335Z,98656.33
2018-03-19T11:39:58.960Z,98652.28
2018-03-19T11:42:26.535Z,98656.33
2018-03-19T11:44:55.392Z,98650.92
2018-03-19T11:47:23.459Z,98654.59
2018-03-19T11:49:51.046Z,98643.98
2018-03-19T11:52:18.988Z,98644.25
2018-03-19T11:54:46.676Z,98640.91
2018-03-19T11:57:14.282Z,98637.98
2018-03-19T11:59:41.932Z,98644.43
2018-03-19T12:02:10.458Z,98635.56
2018-03-19T12:04:39.054Z,98637.52
2018-03-19T12:07:06.738Z,98631.05
2018-03-19T12:09:34.302Z,98637.86
2018-03-19T12:12:01.905Z,98640.18
2018-03-19T12:14:29.468Z,98626.70
2018-03-19T12:16:57.070Z,98617.20
2018-03-19T12:19:24.704Z,98612.08
2018-03-19T12:21:52.411Z,98624.24
2018-03-19T12:24:19.982Z,98623.55
2018-03-19T12:26:47.660Z,98630.70
2018-03-19T12:29:15.264Z,98628.53
2018-03-19T12:31:42.841Z,98624.66
2018-03-19T12:34:10.445Z,98618.62
2018-03-19T12:36:38.004Z,98616.06
2018-03-19T12:39:05.790Z,98625.12
2018-03-19T12:41:33.337Z,98626.95
2018-03-19T12:44:02.232Z,98636.44
2018-03-19T12:46:29.792Z,98629.70
2018-03-19T12:48:57.597Z,98633.52
2018-03-19T12:51:31.245Z,98635.30
2018-03-19T12:53:58.824Z,98634.03
2018-03-19T12:56:26.409Z,98628.80
2018-03-19T12:58:54.016Z,98630.48
2018-03-19T13:01:22.318Z,98621.19
2018-03-19T13:03:49.856Z,98611.81
2018-03-19T13:06:17.461Z,98618.78
2018-03-19T13:08:45.015Z,98610.30
2018-03-19T13:11:12.656Z,98608.19
2018-03-19T13:13:40.227Z,98613.33
2018-03-19T13:16:07.800Z,98624.13
2018-03-19T13:18:35.396Z,98621.97
2018-03-19T13:21:03.822Z,98623.02
2018-03-19T13:23:31.489Z,98617.94
2018-03-19T13:25:59.783Z,98617.00
2018-03-19T13:28:27.401Z,98618.16
2018-03-19T13:30:54.977Z,98605.63
2018-03-19T13:33:22.532Z,98608.45
2018-03-19T13:35:50.136Z,98603.25
2018-03-19T13:38:17.745Z,98600.27
2018-03-19T13:40:45.935Z,98586.80
2018-03-19T13:43:13.503Z,98571.77
2018-03-19T13:45:41.113Z,98571.09
2018-03-19T13:48:09.247Z,98572.21
2018-03-19T13:50:37.440Z,98577.14
2018-03-19T13:53:05.009Z,98571.66
2018-03-19T13:55:32.646Z,98580.73
2018-03-19T13:58:00.682Z,98581.93
2018-03-19T14:00:28.296Z,98578.06
2018-03-19T14:02:56.669Z,98580.83
2018-03-19T14:05:24.893Z,98585.13
2018-03-19T14:07:52.842Z,98577.78
2018-03-19T14:10:20.399Z,98574.32
2018-03-19T14:12:48.008Z,98561.64
2018-03-19T14:15:15.565Z,98565.27
2018-03-19T14:17:43.150Z,98566.05
2018-03-19T14:20:11.165Z,98556.62
2018-03-19T14:22:39.358Z,98556.72
2018-03-19T14:25:07.953Z,98553.31
2018-03-19T14:27:36.532Z,98549.44
2018-03-19T14:30:04.105Z,98548.45
2018-03-19T14:32:31.850Z,98552.32
2018-03-19T14:34:59.914Z,98545.41
2018-03-19T14:37:27.521Z,98538.72
2018-03-19T14:39:55.139Z,98542.74
2018-03-19T14:42:23.252Z,98532.26
2018-03-19T14:44:50.877Z,98534.25
2018-03-19T14:47:18.448Z,98542.39
2018-03-19T14:49:46.129Z,98540.75
2018-03-19T14:52:14.460Z,98533.05
2018-03-19T14:54:42.321Z,98535.58
2018-03-19T14:57:10.145Z,98543.58
2018-03-19T14:59:39.825Z,98545.84
2018-03-19T15:02:07.386Z,98535.69
2018-03-19T15:04:35.850Z,98524.63
2018-03-19T15:07:03.468Z,98515.41
2018-03-19T15:09:31.086Z,98494.90
2018-03-19T15:11:58.693Z,98483.97
2018-03-19T15:14:26.296Z,98488.11
2018-03-19T15:16:53.851Z,98466.68
2018-03-19T15:19:22.301Z,98483.71
2018-03-19T15:21:50.274Z,98490.56
2018-03-19T15:24:17.841Z,98498.42
2018-03-19T15:26:45.419Z,98490.21
2018-03-19T15:29:13.015Z,98500.63
2018-03-19T15:31:41.422Z,98517.29
2018-03-19T15:34:09.038Z,98504.20
2018-03-19T15:36:37.022Z,98498.16
2018-03-19T15:39:04.655Z,98512.47
2018-03-19T15:41:32.493Z,98519.95
2018-03-19T15:44:00.131Z,98524.36
2018-03-19T15:46:27.728Z,98526.20
2018-03-19T15:48:55.875Z,98527.14
2018-03-19T15:51:23.542Z,98519.75
2018-03-19T15:53:51.096Z,98542.75
2018-03-19T15:56:20.109Z,98528.65
2018-03-19T15:58:48.025Z,98534.89
2018-03-19T16:01:15.951Z,98529.34
2018-03-19T16:03:44.370Z,98537.40
2018-03-19T16:06:16.365Z,98538.97
2018-03-19T16:08:45.385Z,98528.11
2018-03-19T16:11:15.024Z,98513.39
2018-03-19T16:13:42.575Z,98514.66
2018-03-19T16:16:11.444Z,98510.41
2018-03-19T16:18:38.997Z,98507.05
2018-03-19T16:21:09.061Z,98486.73
2018-03-19T16:23:36.624Z,98477.00
2018-03-19T16:26:05.023Z,98478.05
2018-03-19T16:28:32.625Z,98487.31
2018-03-19T16:31:00.175Z,98484.70
2018-03-19T16:33:28.684Z,98487.38
2018-03-19T16:35:58.147Z,98483.71
2018-03-19T16:38:26.093Z,98479.92
2018-03-19T16:40:54.150Z,98481.23
2018-03-19T16:43:22.890Z,98475.53
2018-03-19T16:45:50.741Z,98476.02
2018-03-19T16:48:19.092Z,98472.45
2018-03-19T16:50:47.063Z,98477.73
2018-03-19T16:53:14.685Z,98492.50
2018-03-19T16:55:43.096Z,98486.05
2018-03-19T16:58:11.712Z,98483.38
2018-03-19T17:00:39.652Z,98472.14
2018-03-19T17:03:07.592Z,98463.44
2018-03-19T17:05:35.160Z,98461.20
2018-03-19T17:08:02.782Z,98478.16
2018-03-19T17:10:31.156Z,98476.06
2018-03-19T17:12:58.788Z,98475.75
2018-03-19T17:15:27.200Z,98481.19
2018-03-19T17:17:54.814Z,98474.52
2018-03-19T17:20:22.891Z,98482.33
2018-03-19T17:22:50.881Z,98474.52
2018-03-19T17:25:19.831Z,98498.39
2018-03-19T17:27:49.303Z,98498.34
2018-03-19T17:30:18.694Z,98486.14
2018-03-19T17:32:46.757Z,98492.80
2018-03-19T17:35:14.761Z,98491.39
2018-03-19T17:37:43.330Z,98487.03
2018-03-19T17:40:12.028Z,98482.59
2018-03-19T17:42:40.235Z,98496.20
2018-03-19T17:45:09.095Z,98496.30
2018-03-19T17:47:37.483Z,98507.09
2018-03-19T17:50:05.847Z,98517.88
2018-03-19T17:52:35.239Z,98515.20
2018-03-19T17:55:03.619Z,98515.09
2018-03-19T17:57:33.585Z,98517.45
2018-03-19T18:00:02.241Z,98520.09
2018-03-19T18:02:30.522Z,98519.27
2018-03-19T18:04:59.130Z,98516.59
2018-03-19T18:07:28.260Z,98525.42
2018-03-19T18:09:56.511Z,98544.12
2018-03-19T18:12:25.714Z,98547.58
2018-03-19T18:14:53.987Z,98532.70
2018-03-19T18:17:22.630Z,98537.11
2018-03-19T18:19:51.621Z,98549.58
2018-03-19T18:22:19.939Z,98548.31
2018-03-19T18:24:51.266Z,98547.37
2018-03-19T18:27:21.245Z,98539.63
2018-03-19T18:29:50.666Z,98548.04
2018-03-19T18:32:20.497Z,98542.27
2018-03-19T18:34:50.656Z,98532.27
2018-03-19T18:37:19.783Z,98540.80
2018-03-19T18:39:48.832Z,98542.48
2018-03-19T18:42:17.455Z,98529.27
2018-03-19T18:44:45.660Z,98547.63
2018-03-19T18:47:14.847Z,98554.67
2018-03-19T18:49:43.110Z,98558.17
2018-03-19T18:52:11.598Z,98555.70
2018-03-19T18:54:40.584Z,98569.31
2018-03-19T18:57:08.903Z,98567.94
2018-03-19T18:59:37.345Z,98571.45
2018-03-19T19:02:06.348Z,98552.73
2018-03-19T19:04:35.241Z,98558.84
2018-03-19T19:07:03.314Z,98563.13
2018-03-19T19:09:32.050Z,98562.20
2018-03-19T19:12:01.345Z,98565.15
2018-03-19T19:14:30.073Z,98569.63
2018-03-19T19:17:01.080Z,98564.73
2018-03-19T19:19:29.319Z,98563.83
2018-03-19T19:21:59.064Z,98559.91
2018-03-19T19:24:30.296Z,98556.41
2018-03-19T19:26:58.716Z,98551.17
2018-03-19T19:29:27.706Z,98548.00
2018-03-19T19:31:56.086Z,98545.32
2018-03-19T19:34:24.777Z,98543.03
2018-03-19T19:36:53.537Z,98540.19
2018-03-19T19:39:22.508Z,98543.05
2018-03-19T19:41:52.348Z,98549.03
2018-03-19T19:44:21.055Z,98542.48
2018-03-19T19:46:50.898Z,98545.53
2018-03-19T19:49:20.262Z,98541.33
2018-03-19T19:51:51.093Z,98529.28
2018-03-19T19:54:20.711Z,98525.20
2018-03-19T19:56:49.673Z,98530.45
2018-03-19T19:59:18.489Z,98517.45
2018-03-19T20:01:46.981Z,98522.91
2018-03-19T20:04:16.057Z,98514.59
2018-03-19T20:06:47.510Z,98507.86
2018-03-19T20:09:16.536Z,98517.31
2018-03-19T20:11:46.072Z,98503.62
2018-03-19T20:14:15.365Z,98496.20
2018-03-19T20:16:44.128Z,98496.11
2018-03-19T20:19:12.792Z,98497.02
2018-03-19T20:21:43.309Z,98494.30
2018-03-19T20:24:12.436Z,98483.02
2018-03-19T20:26:40.609Z,98488.81
2018-03-19T20:29:09.055Z,98485.70
2018-03-19T20:31:37.241Z,98482.41
2018-03-19T20:34:06.117Z,98483.25
2018-03-19T20:36:34.365Z,98479.14
2018-03-19T20:39:04.090Z,98481.38
2018-03-19T20:41:31.697Z,98474.71
2018-03-19T20:43:59.576Z,98469.44
2018-03-19T20:46:27.187Z,98470.85
2018-03-19T20:48:55.346Z,98465.44
2018-03-19T20:51:23.707Z,98464.09
2018-03-19T20:53:51.956Z,98466.12
2018-03-19T20:56:19.953Z,98465.71
2018-03-19T20:58:47.516Z,98463.80
2018-03-19T21:01:16.178Z,98459.08
2018-03-19T21:03:43.792Z,98459.24
2018-03-19T21:06:11.367Z,98458.41
2018-03-19T21:08:39.203Z,98455.95
2018-03-19T21:11:06.924Z,98464.39
2018-03-19T21:13:34.800Z,98458.84
2018-03-19T21:16:03.484Z,98453.45
2018-03-19T21:18:31.075Z,98457.77
2018-03-19T21:20:58.652Z,98457.95
2018-03-19T21:23:27.195Z,98455.16
2018-03-19T21:25:55.463Z,98447.02
2018-03-19T21:28:23.428Z,98449.38
2018-03-19T21:30:51.107Z,98448.05
2018-03-19T21:33:21.323Z,98443.06
2018-03-19T21:35:49.394Z,98443.28
2018-03-19T21:38:17.753Z,98443.02
2018-03-19T21:40:46.226Z,98443.97
2018-03-19T21:43:14.638Z,98445.93
2018-03-19T21:45:42.528Z,98447.28
2018-03-19T21:48:10.131Z,98448.41
2018-03-19T21:50:37.715Z,98445.22
2018-03-19T21:53:05.532Z,98447.06
2018-03-19T21:55:33.148Z,98452.77
2018-03-19T21:58:00.705Z,98453.98
2018-03-19T22:00:28.296Z,98445.80
2018-03-19T22:02:55.882Z,98444.28
2018-03-19T22:05:23.960Z,98448.28
2018-03-19T22:07:51.568Z,98438.17
2018-03-19T22:10:19.127Z,98437.77
2018-03-19T22:12:46.675Z,98436.16
2018-03-19T22:15:15.256Z,98433.92
2018-03-19T22:17:42.964Z,98431.23
2018-03-19T22:20:11.177Z,98425.08
2018-03-19T22:22:40.158Z,98411.47
2018-03-19T22:25:08.209Z,98406.09
2018-03-19T22:27:36.638Z,98408.81
2018-03-19T22:30:05.084Z,98407.37
2018-03-19T22:32:32.880Z,98402.31
2018-03-19T22:35:00.457Z,98403.16
2018-03-19T22:37:28.089Z,98401.95
2018-03-19T22:39:55.647Z,98395.99
2018-03-19T22:42:23.692Z,98390.22
2018-03-19T22:44:51.235Z,98386.08
2018-03-19T22:47:19.345Z,98386.63
2018-03-19T22:49:46.896Z,98382.97
2018-03-19T22:52:15.505Z,98383.72
2018-03-19T22:54:43.061Z,98370.24
2018-03-19T22:57:10.653Z,98373.12
2018-03-19T22:59:38.222Z,98361.39
2018-03-19T23:02:05.826Z,98362.73
2018-03-19T23:04:45.793Z,98355.03
2018-03-19T23:07:13.375Z,98352.14
2018-03-19T23:09:40.967Z,98360.28
2018-03-19T23:12:09.404Z,98353.52
2018-03-19T23:14:36.992Z,98347.80
2018-03-19T23:17:04.595Z,98348.57
2018-03-19T23:19:32.187Z,98347.34
2018-03-19T23:21:59.748Z,98334.37
2018-03-19T23:24:27.352Z,98327.05
2018-03-19T23:26:55.061Z,98322.88
2018-03-19T23:29:22.807Z,98323.59
2018-03-19T23:31:50.400Z,98328.09
2018-03-19T23:34:18.341Z,98325.36
2018-03-19T23:36:45.943Z,98316.52
2018-03-19T23:39:13.489Z,98306.34
2018-03-19T23:41:41.049Z,98308.20
2018-03-19T23:44:08.673Z,98301.27
2018-03-19T23:46:36.219Z,98305.19
2018-03-19T23:49:04.209Z,98308.33
2018-03-19T23:51:32.512Z,98306.65
2018-03-19T23:54:00.109Z,98304.87
2018-03-19T23:56:27.677Z,98301.03
2018-03-19T23:58:55.796Z,98294.58
